Terminal Aerodrome Forecast
Issued by NWS

Home | Current Version | Previous Version | Text Only | Print | Product List | Glossary On
Versions: 1 2 3 4 5 6 7 8 9 10 11 12 13 14 15
000
FTUS44 KEPZ 172326
TAFLRU

TAF
KLRU 172320Z 1800/1824 09008KT P6SM VCTS SCT025CB BKN050
     FM180300 04008KT 7SM -SHRA SCT015 BKN025
      TEMPO 1803/1805 2SM +SHRA BKN015
     FM181000 03007KT P6SM VCSH SCT015 BKN040
     FM181800 23008KT 6SM -SHRA FEW015 BKN025 BKN040
     FM182200 24010KT P6SM VCSH SCT020 BKN040=

USA.gov is the U.S. government's official web portal to all federal, state and local government web resources and services.